sensor_id;sensor_type;location;lat;lon;timestamp;pressure;altitude;pressure_sealevel;temperature;humidity
44144;BME280;68165;51.920;4.492;2023-03-21T00:00:35;67188.25;;;12.02;100.00
44144;BME280;68165;51.920;4.492;2023-03-21T00:03:01;67189.59;;;11.98;100.00
44144;BME280;68165;51.920;4.492;2023-03-21T00:05:26;67191.44;;;12.02;100.00
44144;BME280;68165;51.920;4.492;2023-03-21T00:07:52;67190.88;;;12.02;100.00
44144;BME280;68165;51.920;4.492;2023-03-21T00:10:17;67187.69;;;12.01;100.00
44144;BME280;68165;51.920;4.492;2023-03-21T00:12:42;67187.91;;;11.97;100.00
44144;BME280;68165;51.920;4.492;2023-03-21T00:15:10;67173.72;;;11.89;100.00
44144;BME280;68165;51.920;4.492;2023-03-21T00:17:37;67174.69;;;11.87;100.00
44144;BME280;68165;51.920;4.492;2023-03-21T00:20:06;67172.59;;;11.88;100.00
44144;BME280;68165;51.920;4.492;2023-03-21T00:22:35;67170.22;;;11.83;100.00
44144;BME280;68165;51.920;4.492;2023-03-21T00:25:01;67157.34;;;11.71;100.00
44144;BME280;68165;51.920;4.492;2023-03-21T00:27:27;67151.38;;;11.68;100.00
44144;BME280;68165;51.920;4.492;2023-03-21T00:29:53;67151.22;;;11.66;100.00
44144;BME280;68165;51.920;4.492;2023-03-21T00:32:19;67143.38;;;11.59;100.00
44144;BME280;68165;51.920;4.492;2023-03-21T00:34:45;67140.19;;;11.58;100.00
44144;BME280;68165;51.920;4.492;2023-03-21T00:37:11;67135.34;;;11.56;100.00
44144;BME280;68165;51.920;4.492;2023-03-21T00:39:41;67137.25;;;11.53;100.00
44144;BME280;68165;51.920;4.492;2023-03-21T00:42:06;67134.06;;;11.53;100.00
44144;BME280;68165;51.920;4.492;2023-03-21T00:44:32;67127.94;;;11.47;100.00
44144;BME280;68165;51.920;4.492;2023-03-21T00:47:04;67128.31;;;11.45;100.00
44144;BME280;68165;51.920;4.492;2023-03-21T00:49:31;67129.44;;;11.46;100.00
44144;BME280;68165;51.920;4.492;2023-03-21T00:52:02;67123.47;;;11.43;100.00
44144;BME280;68165;51.920;4.492;2023-03-21T00:54:28;67121.78;;;11.41;100.00
44144;BME280;68165;51.920;4.492;2023-03-21T00:56:53;67124.03;;;11.43;100.00
44144;BME280;68165;51.920;4.492;2023-03-21T00:59:19;67121.56;;;11.46;100.00
44144;BME280;68165;51.920;4.492;2023-03-21T01:01:45;67131.66;;;11.48;100.00
44144;BME280;68165;51.920;4.492;2023-03-21T01:04:12;67132.38;;;11.51;100.00
44144;BME280;68165;51.920;4.492;2023-03-21T01:06:40;67136.88;;;11.55;100.00
44144;BME280;68165;51.920;4.492;2023-03-21T01:09:11;67144.13;;;11.62;100.00
44144;BME280;68165;51.920;4.492;2023-03-21T01:11:37;67145.78;;;11.63;100.00
44144;BME280;68165;51.920;4.492;2023-03-21T01:14:03;67154.53;;;11.69;100.00
44144;BME280;68165;51.920;4.492;2023-03-21T01:16:28;67149.16;;;11.66;100.00
44144;BME280;68165;51.920;4.492;2023-03-21T01:18:54;67143.00;;;11.61;100.00
44144;BME280;68165;51.920;4.492;2023-03-21T01:21:20;67142.44;;;11.60;100.00
44144;BME280;68165;51.920;4.492;2023-03-21T01:23:47;67143.00;;;11.61;100.00
44144;BME280;68165;51.920;4.492;2023-03-21T01:26:13;67139.09;;;11.57;100.00
44144;BME280;68165;51.920;4.492;2023-03-21T01:28:40;67143.94;;;11.59;100.00
44144;BME280;68165;51.920;4.492;2023-03-21T01:31:06;67143.22;;;11.56;100.00
44144;BME280;68165;51.920;4.492;2023-03-21T01:33:32;67135.75;;;11.54;100.00
44144;BME280;68165;51.920;4.492;2023-03-21T01:35:59;67136.13;;;11.52;100.00
44144;BME280;68165;51.920;4.492;2023-03-21T01:38:25;67128.50;;;11.48;100.00
44144;BME280;68165;51.920;4.492;2023-03-21T01:40:51;67120.09;;;11.40;100.00
44144;BME280;68165;51.920;4.492;2023-03-21T01:43:21;67122.91;;;11.42;100.00
44144;BME280;68165;51.920;4.492;2023-03-21T01:48:48;67117.47;;;11.40;100.00
44144;BME280;68165;51.920;4.492;2023-03-21T01:51:15;67122.34;;;11.42;100.00
44144;BME280;68165;51.920;4.492;2023-03-21T01:53:41;67120.66;;;11.40;100.00
44144;BME280;68165;51.920;4.492;2023-03-21T01:56:11;67115.66;;;11.36;100.00
44144;BME280;68165;51.920;4.492;2023-03-21T01:58:40;67110.47;;;11.29;100.00
44144;BME280;68165;51.920;4.492;2023-03-21T02:01:06;67109.75;;;11.26;100.00
44144;BME280;68165;51.920;4.492;2023-03-21T02:03:32;67105.59;;;11.27;100.00
44144;BME280;68165;51.920;4.492;2023-03-21T02:06:10;67116.44;;;11.32;100.00
44144;BME280;68165;51.920;4.492;2023-03-21T02:08:37;67103.94;;;11.25;100.00
44144;BME280;68165;51.920;4.492;2023-03-21T02:11:04;67101.38;;;11.18;100.00
44144;BME280;68165;51.920;4.492;2023-03-21T02:13:30;67098.91;;;11.21;100.00
44144;BME280;68165;51.920;4.492;2023-03-21T02:16:01;67104.88;;;11.24;100.00
44144;BME280;68165;51.920;4.492;2023-03-21T02:22:40;67107.66;;;11.26;100.00
44144;BME280;68165;51.920;4.492;2023-03-21T02:27:29;67091.47;;;11.12;100.00
44144;BME280;68165;51.920;4.492;2023-03-21T02:41:03;67074.34;;;10.98;100.00
44144;BME280;68165;51.920;4.492;2023-03-21T02:43:38;67074.34;;;10.98;100.00
44144;BME280;68165;51.920;4.492;2023-03-21T02:46:21;67078.81;;;11.02;100.00
44144;BME280;68165;51.920;4.492;2023-03-21T02:49:19;67079.78;;;11.01;100.00
44144;BME280;68165;51.920;4.492;2023-03-21T02:51:47;67066.53;;;10.91;100.00
44144;BME280;68165;51.920;4.492;2023-03-21T02:54:16;67070.66;;;10.90;100.00
44144;BME280;68165;51.920;4.492;2023-03-21T02:56:43;67074.72;;;10.96;100.00
44144;BME280;68165;51.920;4.492;2023-03-21T02:59:11;67080.47;;;11.04;100.00
44144;BME280;68165;51.920;4.492;2023-03-21T03:01:38;67086.25;;;11.12;100.00
44144;BME280;68165;51.920;4.492;2023-03-21T03:04:15;67095.00;;;11.17;100.00
44144;BME280;68165;51.920;4.492;2023-03-21T03:09:42;67112.84;;;11.33;100.00
44144;BME280;68165;51.920;4.492;2023-03-21T03:17:50;67121.22;;;11.41;100.00
44144;BME280;68165;51.920;4.492;2023-03-21T03:20:21;67118.28;;;11.36;100.00
44144;BME280;68165;51.920;4.492;2023-03-21T03:25:18;67119.88;;;11.44;100.00
44144;BME280;68165;51.920;4.492;2023-03-21T03:27:46;67132.94;;;11.52;100.00
44144;BME280;68165;51.920;4.492;2023-03-21T03:30:14;67138.53;;;11.57;100.00
44144;BME280;68165;51.920;4.492;2023-03-21T03:32:49;67140.19;;;11.58;100.00
44144;BME280;68165;51.920;4.492;2023-03-21T03:35:17;67146.19;;;11.61;100.00
44144;BME280;68165;51.920;4.492;2023-03-21T03:37:51;67143.16;;;11.63;100.00
44144;BME280;68165;51.920;4.492;2023-03-21T03:40:51;67154.00;;;11.68;100.00
44144;BME280;68165;51.920;4.492;2023-03-21T03:43:20;67153.28;;;11.65;100.00
44144;BME280;68165;51.920;4.492;2023-03-21T03:45:53;67146.19;;;11.61;100.00
44144;BME280;68165;51.920;4.492;2023-03-21T03:50:59;67145.78;;;11.63;100.00
44144;BME280;68165;51.920;4.492;2023-03-21T03:55:55;67124.91;;;11.49;100.00
44144;BME280;68165;51.920;4.492;2023-03-21T03:58:23;67131.09;;;11.48;100.00
44144;BME280;68165;51.920;4.492;2023-03-21T04:00:50;67114.34;;;11.32;100.00
44144;BME280;68165;51.920;4.492;2023-03-21T04:03:15;67099.44;;;11.21;100.00
44144;BME280;68165;51.920;4.492;2023-03-21T04:05:41;67091.09;;;11.14;100.00
44144;BME280;68165;51.920;4.492;2023-03-21T04:08:09;67086.06;;;11.09;100.00
44144;BME280;68165;51.920;4.492;2023-03-21T04:10:35;67083.09;;;11.04;100.00
44144;BME280;68165;51.920;4.492;2023-03-21T04:13:00;67074.34;;;10.98;100.00
44144;BME280;68165;51.920;4.492;2023-03-21T04:15:25;67070.28;;;10.92;100.00
44144;BME280;68165;51.920;4.492;2023-03-21T04:17:51;67050.38;;;10.77;100.00
44144;BME280;68165;51.920;4.492;2023-03-21T04:20:17;67058.56;;;10.82;100.00
44144;BME280;68165;51.920;4.492;2023-03-21T04:22:42;67062.06;;;10.87;100.00
44144;BME280;68165;51.920;4.492;2023-03-21T04:25:08;67056.13;;;10.84;100.00
44144;BME280;68165;51.920;4.492;2023-03-21T04:27:34;67058.75;;;10.84;100.00
44144;BME280;68165;51.920;4.492;2023-03-21T04:30:00;67060.97;;;10.86;100.00
44144;BME280;68165;51.920;4.492;2023-03-21T04:32:26;67056.66;;;10.85;100.00
44144;BME280;68165;51.920;4.492;2023-03-21T04:34:51;67061.50;;;10.87;100.00
44144;BME280;68165;51.920;4.492;2023-03-21T04:37:20;67054.81;;;10.81;100.00
44144;BME280;68165;51.920;4.492;2023-03-21T04:39:48;67061.13;;;10.89;100.00
44144;BME280;68165;51.920;4.492;2023-03-21T04:42:15;67073.63;;;10.95;100.00
44144;BME280;68165;51.920;4.492;2023-03-21T04:44:43;67076.25;;;10.95;100.00
44144;BME280;68165;51.920;4.492;2023-03-21T04:47:08;67078.09;;;10.99;100.00
44144;BME280;68165;51.920;4.492;2023-03-21T04:49:35;67077.72;;;11.01;100.00
44144;BME280;68165;51.920;4.492;2023-03-21T04:52:01;67076.59;;;11.00;100.00
44144;BME280;68165;51.920;4.492;2023-03-21T04:54:26;67079.78;;;11.01;100.00
44144;BME280;68165;51.920;4.492;2023-03-21T04:56:51;67077.72;;;11.01;100.00
44144;BME280;68165;51.920;4.492;2023-03-21T04:59:18;67077.31;;;11.03;100.00
44144;BME280;68165;51.920;4.492;2023-03-21T05:01:44;67081.59;;;11.05;100.00
44144;BME280;68165;51.920;4.492;2023-03-21T05:04:11;67074.34;;;10.98;100.00
44144;BME280;68165;51.920;4.492;2023-03-21T05:06:36;67080.31;;;11.01;100.00
44144;BME280;68165;51.920;4.492;2023-03-21T05:09:03;67084.41;;;11.08;100.00
44144;BME280;68165;51.920;4.492;2023-03-21T05:11:34;67083.66;;;11.04;100.00
44144;BME280;68165;51.920;4.492;2023-03-21T05:14:02;67088.13;;;11.09;100.00
44144;BME280;68165;51.920;4.492;2023-03-21T05:16:27;67084.97;;;11.08;100.00
44144;BME280;68165;51.920;4.492;2023-03-21T05:18:55;67091.66;;;11.14;100.00
44144;BME280;68165;51.920;4.492;2023-03-21T05:21:21;67094.44;;;11.17;100.00
44144;BME280;68165;51.920;4.492;2023-03-21T05:23:47;67098.34;;;11.20;100.00
44144;BME280;68165;51.920;4.492;2023-03-21T05:26:20;67107.66;;;11.26;100.00
44144;BME280;68165;51.920;4.492;2023-03-21T05:28:46;67102.25;;;11.24;100.00
44144;BME280;68165;51.920;4.492;2023-03-21T05:31:13;67102.25;;;11.24;100.00
44144;BME280;68165;51.920;4.492;2023-03-21T05:33:41;67105.22;;;11.29;100.00
44144;BME280;68165;51.920;4.492;2023-03-21T05:36:07;67101.31;;;11.25;100.00
44144;BME280;68165;51.920;4.492;2023-03-21T05:38:33;67115.31;;;11.31;100.00
44144;BME280;68165;51.920;4.492;2023-03-21T05:40:58;67108.94;;;11.30;100.00
44144;BME280;68165;51.920;4.492;2023-03-21T05:43:24;67095.00;;;11.17;100.00
44144;BME280;68165;51.920;4.492;2023-03-21T05:45:49;67082.16;;;11.05;100.00
44144;BME280;68165;51.920;4.492;2023-03-21T05:48:14;67070.59;;;10.97;100.00
44144;BME280;68165;51.920;4.492;2023-03-21T05:50:40;67064.69;;;10.87;100.00
44144;BME280;68165;51.920;4.492;2023-03-21T05:53:10;67060.56;;;10.88;100.00
44144;BME280;68165;51.920;4.492;2023-03-21T05:55:36;67053.13;;;10.79;100.00
44144;BME280;68165;51.920;4.492;2023-03-21T05:58:02;67054.66;;;10.78;100.00
44144;BME280;68165;51.920;4.492;2023-03-21T06:00:27;67047.56;;;10.74;100.00
44144;BME280;68165;51.920;4.492;2023-03-21T06:02:53;67048.91;;;10.71;100.00
44144;BME280;68165;51.920;4.492;2023-03-21T06:05:18;67045.88;;;10.73;100.00
44144;BME280;68165;51.920;4.492;2023-03-21T06:07:44;67045.34;;;10.72;100.00
44144;BME280;68165;51.920;4.492;2023-03-21T06:10:10;67048.13;;;10.75;100.00
44144;BME280;68165;51.920;4.492;2023-03-21T06:12:35;67048.69;;;10.75;100.00
44144;BME280;68165;51.920;4.492;2023-03-21T06:15:02;67045.34;;;10.72;100.00
44144;BME280;68165;51.920;4.492;2023-03-21T06:17:30;67053.13;;;10.79;100.00
44144;BME280;68165;51.920;4.492;2023-03-21T06:19:55;67058.19;;;10.84;100.00
44144;BME280;68165;51.920;4.492;2023-03-21T06:22:20;67067.28;;;10.94;100.00
44144;BME280;68165;51.920;4.492;2023-03-21T06:24:46;67074.34;;;10.98;100.00
44144;BME280;68165;51.920;4.492;2023-03-21T06:27:12;67075.28;;;10.97;100.00
44144;BME280;68165;51.920;4.492;2023-03-21T06:29:37;67073.78;;;10.98;100.00
44144;BME280;68165;51.920;4.492;2023-03-21T06:32:03;67068.38;;;10.95;100.00
44144;BME280;68165;51.920;4.492;2023-03-21T06:34:28;67061.91;;;10.85;100.00
44144;BME280;68165;51.920;4.492;2023-03-21T06:36:54;67053.69;;;10.80;100.00
44144;BME280;68165;51.920;4.492;2023-03-21T06:39:20;67052.59;;;10.79;100.00
44144;BME280;68165;51.920;4.492;2023-03-21T06:41:46;67056.50;;;10.82;100.00
44144;BME280;68165;51.920;4.492;2023-03-21T06:44:11;67052.03;;;10.78;100.00
44144;BME280;68165;51.920;4.492;2023-03-21T06:46:36;67044.78;;;10.72;100.00
44144;BME280;68165;51.920;4.492;2023-03-21T06:49:02;67048.13;;;10.75;100.00
44144;BME280;68165;51.920;4.492;2023-03-21T06:51:27;67056.72;;;10.78;100.00
44144;BME280;68165;51.920;4.492;2023-03-21T06:53:53;67051.47;;;10.78;100.00
44144;BME280;68165;51.920;4.492;2023-03-21T06:56:18;67040.31;;;10.68;100.00
44144;BME280;68165;51.920;4.492;2023-03-21T06:58:44;67040.88;;;10.68;100.00
44144;BME280;68165;51.920;4.492;2023-03-21T07:01:11;67039.75;;;10.67;100.00
44144;BME280;68165;51.920;4.492;2023-03-21T07:03:38;67045.34;;;10.72;100.00
44144;BME280;68165;51.920;4.492;2023-03-21T07:06:09;67039.00;;;10.71;100.00
44144;BME280;68165;51.920;4.492;2023-03-21T07:08:38;67049.81;;;10.76;100.00
44144;BME280;68165;51.920;4.492;2023-03-21T07:11:05;67047.56;;;10.74;100.00
44144;BME280;68165;51.920;4.492;2023-03-21T07:13:30;67050.38;;;10.77;100.00
44144;BME280;68165;51.920;4.492;2023-03-21T07:15:56;67054.09;;;10.78;100.00
44144;BME280;68165;51.920;4.492;2023-03-21T07:18:22;67046.25;;;10.78;100.00
44144;BME280;68165;51.920;4.492;2023-03-21T07:20:49;67044.63;;;10.69;100.00
44144;BME280;68165;51.920;4.492;2023-03-21T07:23:19;67056.50;;;10.82;100.00
44144;BME280;68165;51.920;4.492;2023-03-21T07:25:47;67051.25;;;10.82;100.00
44144;BME280;68165;51.920;4.492;2023-03-21T07:28:12;67063.03;;;10.86;100.00
44144;BME280;68165;51.920;4.492;2023-03-21T07:30:38;67062.63;;;10.88;100.00
44144;BME280;68165;51.920;4.492;2023-03-21T07:33:03;67059.28;;;10.85;100.00
44144;BME280;68165;51.920;4.492;2023-03-21T07:35:29;67085.91;;;11.07;100.00
44144;BME280;68165;51.920;4.492;2023-03-21T07:37:54;67091.47;;;11.12;100.00
44144;BME280;68165;51.920;4.492;2023-03-21T07:40:20;67106.56;;;11.25;100.00
44144;BME280;68165;51.920;4.492;2023-03-21T07:42:47;67102.41;;;11.26;100.00
44144;BME280;68165;51.920;4.492;2023-03-21T07:45:14;67109.09;;;11.32;100.00
44144;BME280;68165;51.920;4.492;2023-03-21T07:47:46;67125.69;;;11.45;100.00
44144;BME280;68165;51.920;4.492;2023-03-21T07:50:12;67130.94;;;11.45;100.00
44144;BME280;68165;51.920;4.492;2023-03-21T07:52:38;67135.75;;;11.54;100.00
44144;BME280;68165;51.920;4.492;2023-03-21T07:55:03;67139.88;;;11.53;100.00
44144;BME280;68165;51.920;4.492;2023-03-21T07:57:30;67139.66;;;11.58;100.00
44144;BME280;68165;51.920;4.492;2023-03-21T07:59:56;67152.72;;;11.65;100.00
44144;BME280;68165;51.920;4.492;2023-03-21T08:02:21;67158.47;;;11.72;100.00
44144;BME280;68165;51.920;4.492;2023-03-21T08:04:47;67152.88;;;11.67;100.00
44144;BME280;68165;51.920;4.492;2023-03-21T08:07:12;67170.38;;;11.85;100.00
44144;BME280;68165;51.920;4.492;2023-03-21T08:09:37;67181.00;;;11.95;100.00
44144;BME280;68165;51.920;4.492;2023-03-21T08:12:04;67190.88;;;12.02;100.00
44144;BME280;68165;51.920;4.492;2023-03-21T08:14:30;67199.41;;;12.12;100.00
44144;BME280;68165;51.920;4.492;2023-03-21T08:16:55;67211.69;;;12.23;100.00
44144;BME280;68165;51.920;4.492;2023-03-21T08:19:20;67219.34;;;12.27;100.00
44144;BME280;68165;51.920;4.492;2023-03-21T08:21:47;67220.09;;;12.31;100.00
44144;BME280;68165;51.920;4.492;2023-03-21T08:24:14;67238.19;;;12.42;100.00
44144;BME280;68165;51.920;4.492;2023-03-21T08:26:39;67245.59;;;12.51;100.00
44144;BME280;68165;51.920;4.492;2023-03-21T08:29:05;67242.44;;;12.51;100.00
44144;BME280;68165;51.920;4.492;2023-03-21T08:31:31;67257.34;;;12.62;100.00
44144;BME280;68165;51.920;4.492;2023-03-21T08:33:56;67262.00;;;12.68;100.00
44144;BME280;68165;51.920;4.492;2023-03-21T08:36:22;67275.94;;;12.81;100.00
44144;BME280;68165;51.920;4.492;2023-03-21T08:38:47;67283.78;;;12.88;100.00
44144;BME280;68165;51.920;4.492;2023-03-21T08:41:16;67283.78;;;12.88;100.00
44144;BME280;68165;51.920;4.492;2023-03-21T08:43:43;67284.91;;;12.89;100.00
44144;BME280;68165;51.920;4.492;2023-03-21T08:46:08;67295.34;;;12.96;100.00
44144;BME280;68165;51.920;4.492;2023-03-21T08:48:33;67315.66;;;13.17;100.00
44144;BME280;68165;51.920;4.492;2023-03-21T08:51:03;67333.56;;;13.33;100.00
44144;BME280;68165;51.920;4.492;2023-03-21T08:53:28;67343.22;;;13.44;100.00
44144;BME280;68165;51.920;4.492;2023-03-21T08:55:53;67346.97;;;13.45;100.00
44144;BME280;68165;51.920;4.492;2023-03-21T08:58:19;67353.13;;;13.51;100.00
44144;BME280;68165;51.920;4.492;2023-03-21T09:00:45;67357.03;;;13.55;100.00
44144;BME280;68165;51.920;4.492;2023-03-21T09:03:10;67374.91;;;13.71;100.00
44144;BME280;68165;51.920;4.492;2023-03-21T09:05:37;67364.63;;;13.66;100.00
44144;BME280;68165;51.920;4.492;2023-03-21T09:08:02;67379.78;;;13.73;100.00
44144;BME280;68165;51.920;4.492;2023-03-21T09:10:29;67394.34;;;13.86;100.00
44144;BME280;68165;51.920;4.492;2023-03-21T09:12:55;67406.81;;;14.00;100.00
44144;BME280;68165;51.920;4.492;2023-03-21T09:15:22;67415.03;;;14.05;100.00
44144;BME280;68165;51.920;4.492;2023-03-21T09:17:49;67419.28;;;14.13;100.00
44144;BME280;68165;51.920;4.492;2023-03-21T09:20:18;67427.09;;;14.20;100.00
44144;BME280;68165;51.920;4.492;2023-03-21T09:22:46;67433.81;;;14.26;100.00
44144;BME280;68165;51.920;4.492;2023-03-21T09:25:12;67434.00;;;14.29;100.00
44144;BME280;68165;51.920;4.492;2023-03-21T09:27:39;67445.25;;;14.32;100.00
44144;BME280;68165;51.920;4.492;2023-03-21T09:30:05;67458.88;;;14.47;100.00
44144;BME280;68165;51.920;4.492;2023-03-21T09:32:33;67467.81;;;14.55;100.00
44144;BME280;68165;51.920;4.492;2023-03-21T09:34:59;67469.75;;;14.52;100.00
44144;BME280;68165;51.920;4.492;2023-03-21T09:37:24;67458.47;;;14.49;100.00
44144;BME280;68165;51.920;4.492;2023-03-21T09:39:50;67464.06;;;14.54;100.00
44144;BME280;68165;51.920;4.492;2023-03-21T09:47:59;67470.06;;;14.57;100.00
44144;BME280;68165;51.920;4.492;2023-03-21T09:50:29;67467.09;;;14.52;100.00
44144;BME280;68165;51.920;4.492;2023-03-21T09:53:13;67484.06;;;14.69;100.00
44144;BME280;68165;51.920;4.492;2023-03-21T09:55:43;67489.81;;;14.77;100.00
44144;BME280;68165;51.920;4.492;2023-03-21T09:58:29;67505.47;;;14.91;100.00
44144;BME280;68165;51.920;4.492;2023-03-21T10:01:21;67523.78;;;15.05;100.00
44144;BME280;68165;51.920;4.492;2023-03-21T10:04:02;67528.84;;;15.10;100.00
44144;BME280;68165;51.920;4.492;2023-03-21T10:06:31;67530.09;;;15.13;100.00
44144;BME280;68165;51.920;4.492;2023-03-21T10:11:42;67549.16;;;15.31;100.00
44144;BME280;68165;51.920;4.492;2023-03-21T10:14:21;67547.31;;;15.27;100.00
44144;BME280;68165;51.920;4.492;2023-03-21T10:16:56;67541.00;;;15.19;100.00
44144;BME280;68165;51.920;4.492;2023-03-21T10:19:23;67530.53;;;15.11;99.85
44144;BME280;68165;51.920;4.492;2023-03-21T10:21:50;67528.28;;;15.09;100.00
44144;BME280;68165;51.920;4.492;2023-03-21T10:24:22;67541.72;;;15.22;100.00
44144;BME280;68165;51.920;4.492;2023-03-21T10:26:49;67549.38;;;15.26;99.86
44144;BME280;68165;51.920;4.492;2023-03-21T10:29:16;67560.03;;;15.36;99.75
44144;BME280;68165;51.920;4.492;2023-03-21T10:31:44;67561.88;;;15.40;99.39
44144;BME280;68165;51.920;4.492;2023-03-21T10:34:29;67564.69;;;15.42;99.67
44144;BME280;68165;51.920;4.492;2023-03-21T10:36:55;67549.16;;;15.31;98.11
44144;BME280;68165;51.920;4.492;2023-03-21T10:39:26;67549.38;;;15.26;98.01
44144;BME280;68165;51.920;4.492;2023-03-21T10:41:56;67535.00;;;15.16;98.34
44144;BME280;68165;51.920;4.492;2023-03-21T10:44:28;67517.63;;;15.00;98.62
44144;BME280;68165;51.920;4.492;2023-03-21T10:46:57;67521.97;;;15.01;98.57
44144;BME280;68165;51.920;4.492;2023-03-21T10:49:23;67518.34;;;15.03;98.80
44144;BME280;68165;51.920;4.492;2023-03-21T10:51:54;67527.56;;;15.06;98.79
44144;BME280;68165;51.920;4.492;2023-03-21T10:54:22;67529.00;;;15.13;99.12
44144;BME280;68165;51.920;4.492;2023-03-21T10:59:20;67521.97;;;15.01;98.86
44144;BME280;68165;51.920;4.492;2023-03-21T11:01:51;67525.63;;;15.09;98.59
44144;BME280;68165;51.920;4.492;2023-03-21T11:04:20;67538.91;;;15.19;98.23
44144;BME280;68165;51.920;4.492;2023-03-21T11:06:55;67555.53;;;15.32;98.16
44144;BME280;68165;51.920;4.492;2023-03-21T11:09:24;67570.09;;;15.45;97.65
44144;BME280;68165;51.920;4.492;2023-03-21T11:11:53;67588.06;;;15.61;97.01
44144;BME280;68165;51.920;4.492;2023-03-21T11:17:06;67585.56;;;15.64;94.64
44144;BME280;68165;51.920;4.492;2023-03-21T11:19:34;67604.31;;;15.76;94.44
44144;BME280;68165;51.920;4.492;2023-03-21T11:22:05;67607.44;;;15.83;94.46
44144;BME280;68165;51.920;4.492;2023-03-21T11:24:32;67623.28;;;16.00;94.20
44144;BME280;68165;51.920;4.492;2023-03-21T11:26:59;67647.03;;;16.17;93.62
44144;BME280;68165;51.920;4.492;2023-03-21T11:32:00;67669.47;;;16.37;93.10
44144;BME280;68165;51.920;4.492;2023-03-21T11:34:32;67686.28;;;16.52;93.04
44144;BME280;68165;51.920;4.492;2023-03-21T11:37:02;67694.84;;;16.62;91.73
44144;BME280;68165;51.920;4.492;2023-03-21T11:39:37;67709.84;;;16.73;91.12
44144;BME280;68165;51.920;4.492;2023-03-21T11:42:27;67716.59;;;16.80;88.35
44144;BME280;68165;51.920;4.492;2023-03-21T11:45:13;67709.28;;;16.73;87.38
44144;BME280;68165;51.920;4.492;2023-03-21T11:47:39;67684.03;;;16.50;85.75
44144;BME280;68165;51.920;4.492;2023-03-21T11:50:34;67684.59;;;16.51;85.65
44144;BME280;68165;51.920;4.492;2023-03-21T11:53:35;67673.56;;;16.43;85.90
44144;BME280;68165;51.920;4.492;2023-03-21T12:00:03;67693.97;;;16.57;86.81
44144;BME280;68165;51.920;4.492;2023-03-21T12:02:10;67689.97;;;16.60;86.44
44144;BME280;68165;51.920;4.492;2023-03-21T12:04:51;67704.22;;;16.68;84.79
44144;BME280;68165;51.920;4.492;2023-03-21T12:10:25;67733.69;;;17.00;84.42
44144;BME280;68165;51.920;4.492;2023-03-21T12:21:01;67682.34;;;16.49;85.37
44144;BME280;68165;51.920;4.492;2023-03-21T12:23:46;67660.34;;;16.26;84.19
44144;BME280;68165;51.920;4.492;2023-03-21T12:31:48;67640.88;;;16.11;85.97
44144;BME280;68165;51.920;4.492;2023-03-21T12:34:41;67645.53;;;16.18;86.75
44144;BME280;68165;51.920;4.492;2023-03-21T12:39:47;67666.34;;;16.29;85.95
44144;BME280;68165;51.920;4.492;2023-03-21T12:45:25;67681.06;;;16.45;86.66
44144;BME280;68165;51.920;4.492;2023-03-21T12:48:21;67679.22;;;16.41;87.12
44144;BME280;68165;51.920;4.492;2023-03-21T12:50:52;67668.91;;;16.37;86.80
44144;BME280;68165;51.920;4.492;2023-03-21T12:57:09;67691.31;;;16.57;86.30
44144;BME280;68165;51.920;4.492;2023-03-21T12:59:42;67708.00;;;16.69;85.82
44144;BME280;68165;51.920;4.492;2023-03-21T13:02:17;67724.41;;;16.87;85.60
44144;BME280;68165;51.920;4.492;2023-03-21T13:05:03;67729.88;;;16.89;85.73
44144;BME280;68165;51.920;4.492;2023-03-21T13:07:36;67715.47;;;16.79;85.40
44144;BME280;68165;51.920;4.492;2023-03-21T13:10:11;67720.34;;;16.81;84.67
44144;BME280;68165;51.920;4.492;2023-03-21T13:12:50;67714.72;;;16.76;84.22
44144;BME280;68165;51.920;4.492;2023-03-21T13:15:50;67705.34;;;16.69;85.04
44144;BME280;68165;51.920;4.492;2023-03-21T13:18:34;67702.00;;;16.66;84.75
44144;BME280;68165;51.920;4.492;2023-03-21T13:23:37;67699.19;;;16.64;85.53
44144;BME280;68165;51.920;4.492;2023-03-21T13:26:09;67707.59;;;16.71;85.71
44144;BME280;68165;51.920;4.492;2023-03-21T13:28:39;67694.72;;;16.60;85.36
44144;BME280;68165;51.920;4.492;2023-03-21T13:31:19;67680.66;;;16.47;85.82
44144;BME280;68165;51.920;4.492;2023-03-21T13:33:49;67659.94;;;16.28;86.46
44144;BME280;68165;51.920;4.492;2023-03-21T13:36:24;67642.56;;;16.13;87.08
44144;BME280;68165;51.920;4.492;2023-03-21T13:38:53;67622.78;;;15.92;87.43
44144;BME280;68165;51.920;4.492;2023-03-21T13:41:46;67620.88;;;15.96;88.11
44144;BME280;68165;51.920;4.492;2023-03-21T13:47:02;67613.41;;;15.86;89.38
44144;BME280;68165;51.920;4.492;2023-03-21T13:49:36;67608.94;;;15.82;89.43
44144;BME280;68165;51.920;4.492;2023-03-21T13:57:00;67606.69;;;15.80;90.49
44144;BME280;68165;51.920;4.492;2023-03-21T14:04:38;67595.34;;;15.68;90.57
44144;BME280;68165;51.920;4.492;2023-03-21T14:07:15;67590.84;;;15.64;91.63
44144;BME280;68165;51.920;4.492;2023-03-21T14:09:46;67579.81;;;15.56;91.44
44144;BME280;68165;51.920;4.492;2023-03-21T14:12:15;67589.16;;;15.62;92.00
44144;BME280;68165;51.920;4.492;2023-03-21T14:14:48;67604.47;;;15.78;92.03
44144;BME280;68165;51.920;4.492;2023-03-21T14:17:29;67599.97;;;15.74;91.71
44144;BME280;68165;51.920;4.492;2023-03-21T14:20:15;67608.38;;;15.82;91.75
44144;BME280;68165;51.920;4.492;2023-03-21T14:22:46;67583.19;;;15.59;92.16
44144;BME280;68165;51.920;4.492;2023-03-21T20:35:02;67206.69;;;12.18;100.00
44144;BME280;68165;51.920;4.492;2023-03-21T20:37:28;67211.00;;;12.20;100.00
44144;BME280;68165;51.920;4.492;2023-03-21T20:39:53;67203.50;;;12.18;100.00
44144;BME280;68165;51.920;4.492;2023-03-21T20:42:18;67211.00;;;12.20;100.00
44144;BME280;68165;51.920;4.492;2023-03-21T20:44:44;67211.13;;;12.22;100.00
44144;BME280;68165;51.920;4.492;2023-03-21T20:47:09;67205.31;;;12.22;100.00
44144;BME280;68165;51.920;4.492;2023-03-21T20:49:34;67212.09;;;12.21;100.00